Archival Weather

Chicago O'Hare International

Chicago, Illinois (KORD)

Report from: Tuesday, August 16, 2022 10:51 PM CDT
Current time: Sunday, February 25, 2024 3:28 PM CST

Current weather – Weather history – Daily summaries
Weather forecast

Temperature18.3°C (64.9°F)
Dew point12.2°C (54.0°F)
Winds 5 kts (2.6 m/s, 5.8 mph) North (350°)
Visibility10 mi. (16.1 km)
Clouds Sky clear
Altimeter30.11 in.Hg (1020 mB)
Relative humidity68 %
Density altitude380 ft. (116 m)
Sea-level pressure101.9 kPa (1019 mB, 30.10 in.Hg)
Remarks Automated weather observing station with precipitation discriminator
Flight conditions Visual Meteorological Conditions
Raw dataKORD 170351Z 35005KT 10SM CLR 18/12 A3011 RMK AO2 SLP194 T01830122
An error has occurred. This application may no longer respond until reloaded. Reload 🗙